sensor_id;sensor_type;location;lat;lon;timestamp;temperature;humidity
23233;DHT22;11785;49.500;8.288;2024-02-28T00:01:52;4.90;99.90
23233;DHT22;11785;49.500;8.288;2024-02-28T00:04:18;4.90;99.90
23233;DHT22;11785;49.500;8.288;2024-02-28T00:06:44;4.80;99.90
23233;DHT22;11785;49.500;8.288;2024-02-28T00:09:11;4.80;99.90
23233;DHT22;11785;49.500;8.288;2024-02-28T00:11:45;4.70;99.90
23233;DHT22;11785;49.500;8.288;2024-02-28T00:14:12;4.60;99.90
23233;DHT22;11785;49.500;8.288;2024-02-28T00:16:41;4.50;99.90
23233;DHT22;11785;49.500;8.288;2024-02-28T00:19:07;4.40;99.90
23233;DHT22;11785;49.500;8.288;2024-02-28T00:21:32;4.30;99.90
23233;DHT22;11785;49.500;8.288;2024-02-28T00:23:58;4.30;99.90
23233;DHT22;11785;49.500;8.288;2024-02-28T00:26:24;4.30;99.90
23233;DHT22;11785;49.500;8.288;2024-02-28T00:28:49;4.20;99.90
23233;DHT22;11785;49.500;8.288;2024-02-28T00:31:15;4.30;99.90
23233;DHT22;11785;49.500;8.288;2024-02-28T00:33:40;4.30;99.90
23233;DHT22;11785;49.500;8.288;2024-02-28T00:36:06;4.30;99.90
23233;DHT22;11785;49.500;8.288;2024-02-28T00:38:31;4.30;99.90
23233;DHT22;11785;49.500;8.288;2024-02-28T00:40:57;4.40;99.90
23233;DHT22;11785;49.500;8.288;2024-02-28T00:43:22;4.30;99.90
23233;DHT22;11785;49.500;8.288;2024-02-28T00:45:48;4.20;99.90
23233;DHT22;11785;49.500;8.288;2024-02-28T00:48:14;4.30;99.90
23233;DHT22;11785;49.500;8.288;2024-02-28T00:50:39;4.20;99.90
23233;DHT22;11785;49.500;8.288;2024-02-28T00:53:05;4.10;99.90
23233;DHT22;11785;49.500;8.288;2024-02-28T00:55:30;4.00;99.90
23233;DHT22;11785;49.500;8.288;2024-02-28T00:57:56;3.90;99.90
23233;DHT22;11785;49.500;8.288;2024-02-28T01:00:22;3.90;99.90
23233;DHT22;11785;49.500;8.288;2024-02-28T01:02:47;3.80;99.90
23233;DHT22;11785;49.500;8.288;2024-02-28T01:05:13;3.80;99.90
23233;DHT22;11785;49.500;8.288;2024-02-28T01:07:38;3.70;99.90
23233;DHT22;11785;49.500;8.288;2024-02-28T01:10:05;3.60;99.90
23233;DHT22;11785;49.500;8.288;2024-02-28T01:12:31;3.60;99.90
23233;DHT22;11785;49.500;8.288;2024-02-28T01:14:57;3.50;99.90
23233;DHT22;11785;49.500;8.288;2024-02-28T01:17:22;3.50;99.90
23233;DHT22;11785;49.500;8.288;2024-02-28T01:19:48;3.50;99.90
23233;DHT22;11785;49.500;8.288;2024-02-28T01:22:14;3.50;99.90
23233;DHT22;11785;49.500;8.288;2024-02-28T01:24:39;3.50;99.90
23233;DHT22;11785;49.500;8.288;2024-02-28T01:27:05;3.40;99.90
23233;DHT22;11785;49.500;8.288;2024-02-28T01:29:31;3.40;99.90
23233;DHT22;11785;49.500;8.288;2024-02-28T01:31:56;3.40;99.90
23233;DHT22;11785;49.500;8.288;2024-02-28T01:34:22;3.30;99.90
23233;DHT22;11785;49.500;8.288;2024-02-28T01:36:47;3.30;99.90
23233;DHT22;11785;49.500;8.288;2024-02-28T01:39:13;3.30;99.90
23233;DHT22;11785;49.500;8.288;2024-02-28T01:41:38;3.30;99.90
23233;DHT22;11785;49.500;8.288;2024-02-28T01:44:04;3.30;99.90
23233;DHT22;11785;49.500;8.288;2024-02-28T01:46:30;3.20;99.90
23233;DHT22;11785;49.500;8.288;2024-02-28T01:48:57;3.20;99.90
23233;DHT22;11785;49.500;8.288;2024-02-28T01:51:25;3.20;99.90
23233;DHT22;11785;49.500;8.288;2024-02-28T01:53:54;3.20;99.90
23233;DHT22;11785;49.500;8.288;2024-02-28T01:56:20;3.30;99.90
23233;DHT22;11785;49.500;8.288;2024-02-28T01:58:49;3.40;99.90
23233;DHT22;11785;49.500;8.288;2024-02-28T02:01:15;3.50;99.90
23233;DHT22;11785;49.500;8.288;2024-02-28T02:03:42;3.60;99.90
23233;DHT22;11785;49.500;8.288;2024-02-28T02:06:08;3.70;99.90
23233;DHT22;11785;49.500;8.288;2024-02-28T02:08:34;3.80;99.90
23233;DHT22;11785;49.500;8.288;2024-02-28T02:11:00;3.80;99.90
23233;DHT22;11785;49.500;8.288;2024-02-28T02:13:26;3.80;99.90
23233;DHT22;11785;49.500;8.288;2024-02-28T02:15:51;3.80;99.90
23233;DHT22;11785;49.500;8.288;2024-02-28T02:18:17;3.80;99.90
23233;DHT22;11785;49.500;8.288;2024-02-28T02:20:44;3.80;99.90
23233;DHT22;11785;49.500;8.288;2024-02-28T02:23:12;3.60;99.90
23233;DHT22;11785;49.500;8.288;2024-02-28T02:25:45;3.50;99.90
23233;DHT22;11785;49.500;8.288;2024-02-28T02:28:11;3.30;99.90
23233;DHT22;11785;49.500;8.288;2024-02-28T02:30:38;3.20;99.90
23233;DHT22;11785;49.500;8.288;2024-02-28T02:33:04;3.10;99.90
23233;DHT22;11785;49.500;8.288;2024-02-28T02:35:29;3.10;99.90
23233;DHT22;11785;49.500;8.288;2024-02-28T02:37:55;3.10;99.90
23233;DHT22;11785;49.500;8.288;2024-02-28T02:40:20;3.00;99.90
23233;DHT22;11785;49.500;8.288;2024-02-28T02:42:46;3.00;99.90
23233;DHT22;11785;49.500;8.288;2024-02-28T02:45:11;2.90;99.90
23233;DHT22;11785;49.500;8.288;2024-02-28T02:47:37;2.90;99.90
23233;DHT22;11785;49.500;8.288;2024-02-28T02:50:03;2.90;99.90
23233;DHT22;11785;49.500;8.288;2024-02-28T02:52:28;2.80;99.90
23233;DHT22;11785;49.500;8.288;2024-02-28T02:54:54;2.90;99.90
23233;DHT22;11785;49.500;8.288;2024-02-28T02:57:20;2.90;99.90
23233;DHT22;11785;49.500;8.288;2024-02-28T02:59:45;2.90;99.90
23233;DHT22;11785;49.500;8.288;2024-02-28T03:02:11;2.90;99.90
23233;DHT22;11785;49.500;8.288;2024-02-28T03:04:36;2.90;99.90
23233;DHT22;11785;49.500;8.288;2024-02-28T03:07:02;3.00;99.90
23233;DHT22;11785;49.500;8.288;2024-02-28T03:09:27;3.00;99.90
23233;DHT22;11785;49.500;8.288;2024-02-28T03:11:53;2.90;99.90
23233;DHT22;11785;49.500;8.288;2024-02-28T03:14:19;2.90;99.90
23233;DHT22;11785;49.500;8.288;2024-02-28T03:16:47;2.90;99.90
23233;DHT22;11785;49.500;8.288;2024-02-28T03:19:14;2.90;99.90
23233;DHT22;11785;49.500;8.288;2024-02-28T03:21:40;2.80;99.90
23233;DHT22;11785;49.500;8.288;2024-02-28T03:24:06;2.70;99.90
23233;DHT22;11785;49.500;8.288;2024-02-28T03:26:32;2.60;99.90
23233;DHT22;11785;49.500;8.288;2024-02-28T03:28:58;2.50;99.90
23233;DHT22;11785;49.500;8.288;2024-02-28T03:31:24;2.50;99.90
23233;DHT22;11785;49.500;8.288;2024-02-28T03:33:50;2.40;99.90
23233;DHT22;11785;49.500;8.288;2024-02-28T03:36:16;2.40;99.90
23233;DHT22;11785;49.500;8.288;2024-02-28T03:38:41;2.40;99.90
23233;DHT22;11785;49.500;8.288;2024-02-28T03:41:07;2.30;99.90
23233;DHT22;11785;49.500;8.288;2024-02-28T03:43:33;2.30;99.90
23233;DHT22;11785;49.500;8.288;2024-02-28T03:45:58;2.20;99.90
23233;DHT22;11785;49.500;8.288;2024-02-28T03:48:24;2.20;99.90
23233;DHT22;11785;49.500;8.288;2024-02-28T03:50:49;2.10;99.90
23233;DHT22;11785;49.500;8.288;2024-02-28T03:53:16;2.10;99.90
23233;DHT22;11785;49.500;8.288;2024-02-28T03:55:41;2.00;99.90
23233;DHT22;11785;49.500;8.288;2024-02-28T03:58:09;2.00;99.90
23233;DHT22;11785;49.500;8.288;2024-02-28T04:00:35;1.90;99.90
23233;DHT22;11785;49.500;8.288;2024-02-28T04:03:01;1.90;99.90
23233;DHT22;11785;49.500;8.288;2024-02-28T04:05:28;1.90;99.90
23233;DHT22;11785;49.500;8.288;2024-02-28T04:07:53;1.90;99.90
23233;DHT22;11785;49.500;8.288;2024-02-28T04:10:19;1.90;99.90
23233;DHT22;11785;49.500;8.288;2024-02-28T04:12:45;1.90;99.90
23233;DHT22;11785;49.500;8.288;2024-02-28T04:15:11;2.00;99.90
23233;DHT22;11785;49.500;8.288;2024-02-28T04:17:38;2.10;99.90
23233;DHT22;11785;49.500;8.288;2024-02-28T04:20:07;2.00;99.90
23233;DHT22;11785;49.500;8.288;2024-02-28T04:22:33;2.00;99.90
23233;DHT22;11785;49.500;8.288;2024-02-28T04:24:58;2.00;99.90
23233;DHT22;11785;49.500;8.288;2024-02-28T04:27:24;1.90;99.90
23233;DHT22;11785;49.500;8.288;2024-02-28T04:29:50;1.80;99.90
23233;DHT22;11785;49.500;8.288;2024-02-28T04:32:15;1.70;99.90
23233;DHT22;11785;49.500;8.288;2024-02-28T04:34:41;1.60;99.90
23233;DHT22;11785;49.500;8.288;2024-02-28T04:37:06;1.50;99.90
23233;DHT22;11785;49.500;8.288;2024-02-28T04:39:32;1.50;99.90
23233;DHT22;11785;49.500;8.288;2024-02-28T04:41:57;1.50;99.90
23233;DHT22;11785;49.500;8.288;2024-02-28T04:44:23;1.40;99.90
23233;DHT22;11785;49.500;8.288;2024-02-28T04:46:48;1.40;99.90
23233;DHT22;11785;49.500;8.288;2024-02-28T04:49:14;1.40;99.90
23233;DHT22;11785;49.500;8.288;2024-02-28T04:51:39;1.40;99.90
23233;DHT22;11785;49.500;8.288;2024-02-28T04:54:05;1.40;99.90
23233;DHT22;11785;49.500;8.288;2024-02-28T04:56:30;1.30;99.90
23233;DHT22;11785;49.500;8.288;2024-02-28T04:58:57;1.20;99.90
23233;DHT22;11785;49.500;8.288;2024-02-28T05:01:22;1.20;99.90
23233;DHT22;11785;49.500;8.288;2024-02-28T05:03:48;1.30;99.90
23233;DHT22;11785;49.500;8.288;2024-02-28T05:06:14;1.30;99.90
23233;DHT22;11785;49.500;8.288;2024-02-28T05:08:39;1.20;99.90
23233;DHT22;11785;49.500;8.288;2024-02-28T05:11:05;1.20;99.90
23233;DHT22;11785;49.500;8.288;2024-02-28T05:13:31;1.20;99.90
23233;DHT22;11785;49.500;8.288;2024-02-28T05:15:56;1.20;99.90
23233;DHT22;11785;49.500;8.288;2024-02-28T05:18:22;1.30;99.90
23233;DHT22;11785;49.500;8.288;2024-02-28T05:20:47;1.30;99.90
23233;DHT22;11785;49.500;8.288;2024-02-28T05:23:13;1.20;99.90
23233;DHT22;11785;49.500;8.288;2024-02-28T05:25:39;1.20;99.90
23233;DHT22;11785;49.500;8.288;2024-02-28T05:28:04;1.20;99.90
23233;DHT22;11785;49.500;8.288;2024-02-28T05:30:30;1.10;99.90
23233;DHT22;11785;49.500;8.288;2024-02-28T05:32:56;1.10;99.90
23233;DHT22;11785;49.500;8.288;2024-02-28T05:35:21;1.10;99.90
23233;DHT22;11785;49.500;8.288;2024-02-28T05:37:47;1.10;99.90
23233;DHT22;11785;49.500;8.288;2024-02-28T05:40:12;1.00;99.90
23233;DHT22;11785;49.500;8.288;2024-02-28T05:42:38;1.00;99.90
23233;DHT22;11785;49.500;8.288;2024-02-28T05:45:05;1.00;99.90
23233;DHT22;11785;49.500;8.288;2024-02-28T05:47:31;1.00;99.90
23233;DHT22;11785;49.500;8.288;2024-02-28T05:49:57;1.00;99.90
23233;DHT22;11785;49.500;8.288;2024-02-28T05:52:24;1.00;99.90
23233;DHT22;11785;49.500;8.288;2024-02-28T05:54:51;1.00;99.90
23233;DHT22;11785;49.500;8.288;2024-02-28T05:57:16;1.00;99.90
23233;DHT22;11785;49.500;8.288;2024-02-28T05:59:42;1.00;99.90
23233;DHT22;11785;49.500;8.288;2024-02-28T06:02:08;1.00;99.90
23233;DHT22;11785;49.500;8.288;2024-02-28T06:04:33;1.00;99.90
23233;DHT22;11785;49.500;8.288;2024-02-28T06:06:59;1.00;99.90
23233;DHT22;11785;49.500;8.288;2024-02-28T06:09:26;1.00;99.90
23233;DHT22;11785;49.500;8.288;2024-02-28T06:11:53;1.00;99.90
23233;DHT22;11785;49.500;8.288;2024-02-28T06:14:19;1.00;99.90
23233;DHT22;11785;49.500;8.288;2024-02-28T06:16:48;1.10;99.90
23233;DHT22;11785;49.500;8.288;2024-02-28T06:19:13;1.10;99.90
23233;DHT22;11785;49.500;8.288;2024-02-28T06:21:39;1.10;99.90
23233;DHT22;11785;49.500;8.288;2024-02-28T06:24:05;1.20;99.90
23233;DHT22;11785;49.500;8.288;2024-02-28T06:26:30;1.20;99.90
23233;DHT22;11785;49.500;8.288;2024-02-28T06:28:57;1.20;99.90
23233;DHT22;11785;49.500;8.288;2024-02-28T06:31:31;1.30;99.90
23233;DHT22;11785;49.500;8.288;2024-02-28T06:33:57;1.30;99.90
23233;DHT22;11785;49.500;8.288;2024-02-28T06:36:23;1.30;99.90
23233;DHT22;11785;49.500;8.288;2024-02-28T06:38:48;1.40;99.90
23233;DHT22;11785;49.500;8.288;2024-02-28T06:41:14;1.40;99.90
23233;DHT22;11785;49.500;8.288;2024-02-28T06:43:40;1.40;99.90
23233;DHT22;11785;49.500;8.288;2024-02-28T06:46:05;1.50;99.90
23233;DHT22;11785;49.500;8.288;2024-02-28T06:48:31;1.50;99.90
23233;DHT22;11785;49.500;8.288;2024-02-28T06:50:57;1.60;99.90
23233;DHT22;11785;49.500;8.288;2024-02-28T06:53:23;1.60;99.90
23233;DHT22;11785;49.500;8.288;2024-02-28T06:55:48;1.70;99.90
23233;DHT22;11785;49.500;8.288;2024-02-28T06:58:17;1.80;99.90
23233;DHT22;11785;49.500;8.288;2024-02-28T07:00:43;1.90;99.90
23233;DHT22;11785;49.500;8.288;2024-02-28T07:03:08;1.90;99.90
23233;DHT22;11785;49.500;8.288;2024-02-28T07:05:34;2.10;99.90
23233;DHT22;11785;49.500;8.288;2024-02-28T07:08:00;2.20;99.90
23233;DHT22;11785;49.500;8.288;2024-02-28T07:10:26;2.20;99.90
23233;DHT22;11785;49.500;8.288;2024-02-28T07:12:51;2.40;99.90
23233;DHT22;11785;49.500;8.288;2024-02-28T07:15:17;2.50;99.90
23233;DHT22;11785;49.500;8.288;2024-02-28T07:17:47;2.60;99.90
23233;DHT22;11785;49.500;8.288;2024-02-28T07:20:12;2.70;99.90
23233;DHT22;11785;49.500;8.288;2024-02-28T07:22:38;2.80;99.90
23233;DHT22;11785;49.500;8.288;2024-02-28T07:25:05;3.00;99.90
23233;DHT22;11785;49.500;8.288;2024-02-28T07:27:31;3.20;99.90
23233;DHT22;11785;49.500;8.288;2024-02-28T07:29:56;3.30;99.90
23233;DHT22;11785;49.500;8.288;2024-02-28T07:32:22;3.50;99.90
23233;DHT22;11785;49.500;8.288;2024-02-28T07:34:48;3.70;99.90
23233;DHT22;11785;49.500;8.288;2024-02-28T07:37:14;3.80;99.90
23233;DHT22;11785;49.500;8.288;2024-02-28T07:39:39;3.90;99.90
23233;DHT22;11785;49.500;8.288;2024-02-28T07:42:05;4.00;99.90
23233;DHT22;11785;49.500;8.288;2024-02-28T07:44:30;4.20;99.90
23233;DHT22;11785;49.500;8.288;2024-02-28T07:46:57;4.30;99.90
23233;DHT22;11785;49.500;8.288;2024-02-28T07:49:24;4.40;99.90
23233;DHT22;11785;49.500;8.288;2024-02-28T07:51:50;4.50;99.90
23233;DHT22;11785;49.500;8.288;2024-02-28T07:54:15;4.50;99.90
23233;DHT22;11785;49.500;8.288;2024-02-28T07:56:41;4.50;99.90
23233;DHT22;11785;49.500;8.288;2024-02-28T07:59:07;4.60;99.90
23233;DHT22;11785;49.500;8.288;2024-02-28T08:01:33;4.70;99.90
23233;DHT22;11785;49.500;8.288;2024-02-28T08:03:59;4.80;99.90
23233;DHT22;11785;49.500;8.288;2024-02-28T08:06:25;4.90;99.90
23233;DHT22;11785;49.500;8.288;2024-02-28T08:08:50;5.00;99.90
23233;DHT22;11785;49.500;8.288;2024-02-28T08:11:16;5.10;99.90
23233;DHT22;11785;49.500;8.288;2024-02-28T08:13:42;5.20;99.90
23233;DHT22;11785;49.500;8.288;2024-02-28T08:16:09;5.20;99.90
23233;DHT22;11785;49.500;8.288;2024-02-28T08:18:35;5.20;99.90
23233;DHT22;11785;49.500;8.288;2024-02-28T08:21:01;5.20;99.90
23233;DHT22;11785;49.500;8.288;2024-02-28T08:23:29;5.20;99.90
23233;DHT22;11785;49.500;8.288;2024-02-28T08:25:54;5.30;99.90
23233;DHT22;11785;49.500;8.288;2024-02-28T08:28:20;5.30;99.90
23233;DHT22;11785;49.500;8.288;2024-02-28T08:30:46;5.40;99.90
23233;DHT22;11785;49.500;8.288;2024-02-28T08:33:11;5.40;99.90
23233;DHT22;11785;49.500;8.288;2024-02-28T08:35:37;5.40;99.90
23233;DHT22;11785;49.500;8.288;2024-02-28T08:38:03;5.40;99.90
23233;DHT22;11785;49.500;8.288;2024-02-28T08:40:29;5.50;99.90
23233;DHT22;11785;49.500;8.288;2024-02-28T08:42:55;5.60;99.90
23233;DHT22;11785;49.500;8.288;2024-02-28T08:45:22;5.70;99.90
23233;DHT22;11785;49.500;8.288;2024-02-28T08:47:48;5.80;99.90
23233;DHT22;11785;49.500;8.288;2024-02-28T08:50:13;5.80;99.90
23233;DHT22;11785;49.500;8.288;2024-02-28T08:52:39;5.80;99.90
23233;DHT22;11785;49.500;8.288;2024-02-28T08:55:05;5.80;99.90
23233;DHT22;11785;49.500;8.288;2024-02-28T08:57:30;5.90;99.90
23233;DHT22;11785;49.500;8.288;2024-02-28T08:59:56;6.00;99.90
23233;DHT22;11785;49.500;8.288;2024-02-28T09:02:22;6.00;99.90
23233;DHT22;11785;49.500;8.288;2024-02-28T09:04:47;6.00;99.90
23233;DHT22;11785;49.500;8.288;2024-02-28T09:07:17;6.10;99.90
23233;DHT22;11785;49.500;8.288;2024-02-28T09:09:45;6.20;99.90
23233;DHT22;11785;49.500;8.288;2024-02-28T09:12:11;6.30;99.90
23233;DHT22;11785;49.500;8.288;2024-02-28T09:14:36;6.40;99.90
23233;DHT22;11785;49.500;8.288;2024-02-28T09:17:02;6.50;99.90
23233;DHT22;11785;49.500;8.288;2024-02-28T09:19:33;6.50;99.90
23233;DHT22;11785;49.500;8.288;2024-02-28T09:21:59;6.60;99.90
23233;DHT22;11785;49.500;8.288;2024-02-28T09:24:26;6.80;99.90
23233;DHT22;11785;49.500;8.288;2024-02-28T09:26:52;6.90;99.90
23233;DHT22;11785;49.500;8.288;2024-02-28T09:29:17;7.30;99.90
23233;DHT22;11785;49.500;8.288;2024-02-28T09:31:43;7.30;99.90
23233;DHT22;11785;49.500;8.288;2024-02-28T09:34:08;7.40;99.90
23233;DHT22;11785;49.500;8.288;2024-02-28T09:36:45;7.40;99.90
23233;DHT22;11785;49.500;8.288;2024-02-28T09:39:14;7.20;99.90
23233;DHT22;11785;49.500;8.288;2024-02-28T09:41:44;7.00;99.90
23233;DHT22;11785;49.500;8.288;2024-02-28T09:44:14;6.90;99.90
23233;DHT22;11785;49.500;8.288;2024-02-28T09:46:40;7.10;99.90
23233;DHT22;11785;49.500;8.288;2024-02-28T09:49:07;7.10;99.90
23233;DHT22;11785;49.500;8.288;2024-02-28T09:51:36;7.20;99.90
23233;DHT22;11785;49.500;8.288;2024-02-28T09:54:05;7.30;99.90
23233;DHT22;11785;49.500;8.288;2024-02-28T09:56:31;7.40;99.90
23233;DHT22;11785;49.500;8.288;2024-02-28T09:58:57;7.40;99.90
23233;DHT22;11785;49.500;8.288;2024-02-28T10:01:22;7.30;99.90
23233;DHT22;11785;49.500;8.288;2024-02-28T10:03:51;7.50;99.90
23233;DHT22;11785;49.500;8.288;2024-02-28T10:06:18;7.60;99.90
23233;DHT22;11785;49.500;8.288;2024-02-28T10:08:44;7.70;99.90
23233;DHT22;11785;49.500;8.288;2024-02-28T10:11:17;7.80;99.90
23233;DHT22;11785;49.500;8.288;2024-02-28T10:13:43;7.90;99.90
23233;DHT22;11785;49.500;8.288;2024-02-28T10:16:09;8.10;99.90
23233;DHT22;11785;49.500;8.288;2024-02-28T10:18:34;8.40;99.90
23233;DHT22;11785;49.500;8.288;2024-02-28T10:21:00;8.70;98.70
23233;DHT22;11785;49.500;8.288;2024-02-28T10:23:26;8.70;97.50
23233;DHT22;11785;49.500;8.288;2024-02-28T10:25:52;8.70;97.70
23233;DHT22;11785;49.500;8.288;2024-02-28T10:28:18;8.90;97.30
23233;DHT22;11785;49.500;8.288;2024-02-28T10:30:44;9.10;95.70
23233;DHT22;11785;49.500;8.288;2024-02-28T10:33:13;8.90;95.90
23233;DHT22;11785;49.500;8.288;2024-02-28T10:35:40;8.90;95.80
23233;DHT22;11785;49.500;8.288;2024-02-28T10:38:10;8.80;96.00
23233;DHT22;11785;49.500;8.288;2024-02-28T10:40:35;8.60;97.00
23233;DHT22;11785;49.500;8.288;2024-02-28T10:43:02;8.90;95.50
23233;DHT22;11785;49.500;8.288;2024-02-28T10:45:30;9.10;93.70
23233;DHT22;11785;49.500;8.288;2024-02-28T10:47:57;9.00;94.90
23233;DHT22;11785;49.500;8.288;2024-02-28T10:50:22;9.10;94.10
23233;DHT22;11785;49.500;8.288;2024-02-28T10:52:48;9.30;93.10
23233;DHT22;11785;49.500;8.288;2024-02-28T10:55:23;9.20;93.20
23233;DHT22;11785;49.500;8.288;2024-02-28T10:57:56;9.60;91.90
23233;DHT22;11785;49.500;8.288;2024-02-28T11:00:23;9.60;91.30
23233;DHT22;11785;49.500;8.288;2024-02-28T11:02:49;9.80;90.80
23233;DHT22;11785;49.500;8.288;2024-02-28T11:05:15;10.20;87.50
23233;DHT22;11785;49.500;8.288;2024-02-28T11:07:41;10.30;85.40
23233;DHT22;11785;49.500;8.288;2024-02-28T11:10:08;10.40;81.70
23233;DHT22;11785;49.500;8.288;2024-02-28T11:12:35;10.60;81.20
23233;DHT22;11785;49.500;8.288;2024-02-28T11:15:03;10.70;77.60
23233;DHT22;11785;49.500;8.288;2024-02-28T11:17:32;10.80;77.60
23233;DHT22;11785;49.500;8.288;2024-02-28T11:19:58;11.00;75.90
23233;DHT22;11785;49.500;8.288;2024-02-28T11:22:27;11.10;70.80
23233;DHT22;11785;49.500;8.288;2024-02-28T11:24:54;11.20;67.80
23233;DHT22;11785;49.500;8.288;2024-02-28T11:27:20;11.40;65.90
23233;DHT22;11785;49.500;8.288;2024-02-28T11:29:46;11.30;66.10
23233;DHT22;11785;49.500;8.288;2024-02-28T11:32:13;11.30;70.10
23233;DHT22;11785;49.500;8.288;2024-02-28T11:34:39;11.50;68.80
23233;DHT22;11785;49.500;8.288;2024-02-28T11:37:06;11.70;63.30
23233;DHT22;11785;49.500;8.288;2024-02-28T11:39:34;11.80;62.20
23233;DHT22;11785;49.500;8.288;2024-02-28T11:42:13;11.60;63.00
23233;DHT22;11785;49.500;8.288;2024-02-28T11:44:39;11.50;62.60
23233;DHT22;11785;49.500;8.288;2024-02-28T11:47:08;11.60;62.20
23233;DHT22;11785;49.500;8.288;2024-02-28T11:49:36;11.50;62.60
23233;DHT22;11785;49.500;8.288;2024-02-28T11:52:03;11.10;67.10
23233;DHT22;11785;49.500;8.288;2024-02-28T11:54:29;11.40;63.60
23233;DHT22;11785;49.500;8.288;2024-02-28T11:56:55;11.80;60.80
23233;DHT22;11785;49.500;8.288;2024-02-28T11:59:21;11.80;60.10
23233;DHT22;11785;49.500;8.288;2024-02-28T12:01:46;12.10;59.90
23233;DHT22;11785;49.500;8.288;2024-02-28T12:04:12;12.20;59.80
23233;DHT22;11785;49.500;8.288;2024-02-28T12:06:39;12.60;59.70
23233;DHT22;11785;49.500;8.288;2024-02-28T12:09:09;12.90;59.60
23233;DHT22;11785;49.500;8.288;2024-02-28T12:11:36;12.80;59.60
23233;DHT22;11785;49.500;8.288;2024-02-28T12:14:07;12.80;59.50
23233;DHT22;11785;49.500;8.288;2024-02-28T12:16:35;12.60;59.60
23233;DHT22;11785;49.500;8.288;2024-02-28T12:19:03;13.20;59.40
23233;DHT22;11785;49.500;8.288;2024-02-28T12:21:29;14.40;59.00
23233;DHT22;11785;49.500;8.288;2024-02-28T12:23:56;15.20;58.70
23233;DHT22;11785;49.500;8.288;2024-02-28T12:26:22;15.90;58.40
23233;DHT22;11785;49.500;8.288;2024-02-28T12:28:48;16.80;58.10
23233;DHT22;11785;49.500;8.288;2024-02-28T12:31:14;17.30;57.80
23233;DHT22;11785;49.500;8.288;2024-02-28T12:33:39;17.90;57.60
23233;DHT22;11785;49.500;8.288;2024-02-28T12:36:05;18.00;57.60
23233;DHT22;11785;49.500;8.288;2024-02-28T12:38:31;19.00;57.20
23233;DHT22;11785;49.500;8.288;2024-02-28T12:40:57;18.50;57.30
23233;DHT22;11785;49.500;8.288;2024-02-28T12:43:23;19.70;57.00
23233;DHT22;11785;49.500;8.288;2024-02-28T12:45:49;20.10;56.90
23233;DHT22;11785;49.500;8.288;2024-02-28T12:48:14;20.70;56.70
23233;DHT22;11785;49.500;8.288;2024-02-28T12:50:40;20.80;56.60
23233;DHT22;11785;49.500;8.288;2024-02-28T12:53:06;21.30;56.50
23233;DHT22;11785;49.500;8.288;2024-02-28T12:55:31;21.60;56.40
23233;DHT22;11785;49.500;8.288;2024-02-28T12:57:57;21.90;56.30
23233;DHT22;11785;49.500;8.288;2024-02-28T13:00:25;21.20;56.40
23233;DHT22;11785;49.500;8.288;2024-02-28T13:02:51;20.80;56.50
23233;DHT22;11785;49.500;8.288;2024-02-28T13:05:17;20.10;56.70
23233;DHT22;11785;49.500;8.288;2024-02-28T13:07:43;19.70;56.90
23233;DHT22;11785;49.500;8.288;2024-02-28T13:10:14;20.30;56.70
23233;DHT22;11785;49.500;8.288;2024-02-28T13:12:40;21.10;56.50
23233;DHT22;11785;49.500;8.288;2024-02-28T13:15:06;21.20;56.40
23233;DHT22;11785;49.500;8.288;2024-02-28T13:17:33;22.20;56.20
23233;DHT22;11785;49.500;8.288;2024-02-28T13:20:01;21.90;56.20
23233;DHT22;11785;49.500;8.288;2024-02-28T13:22:30;21.00;56.40
23233;DHT22;11785;49.500;8.288;2024-02-28T13:24:55;21.80;56.20
23233;DHT22;11785;49.500;8.288;2024-02-28T13:27:24;22.10;56.10
23233;DHT22;11785;49.500;8.288;2024-02-28T13:29:50;22.10;56.20
23233;DHT22;11785;49.500;8.288;2024-02-28T13:32:16;21.80;56.20
23233;DHT22;11785;49.500;8.288;2024-02-28T13:34:41;20.80;56.50
23233;DHT22;11785;49.500;8.288;2024-02-28T13:37:07;19.80;56.70
23233;DHT22;11785;49.500;8.288;2024-02-28T13:39:33;19.60;56.70
23233;DHT22;11785;49.500;8.288;2024-02-28T13:42:00;20.10;56.60
23233;DHT22;11785;49.500;8.288;2024-02-28T13:44:33;19.90;56.60
23233;DHT22;11785;49.500;8.288;2024-02-28T13:46:59;19.70;56.70
23233;DHT22;11785;49.500;8.288;2024-02-28T13:49:25;20.00;56.60
23233;DHT22;11785;49.500;8.288;2024-02-28T13:51:50;20.80;56.50
23233;DHT22;11785;49.500;8.288;2024-02-28T13:54:16;21.50;56.30
23233;DHT22;11785;49.500;8.288;2024-02-28T13:56:42;23.00;55.90
23233;DHT22;11785;49.500;8.288;2024-02-28T13:59:07;23.70;55.70
23233;DHT22;11785;49.500;8.288;2024-02-28T14:01:33;23.60;55.70
23233;DHT22;11785;49.500;8.288;2024-02-28T14:03:58;23.20;55.80
23233;DHT22;11785;49.500;8.288;2024-02-28T14:06:24;21.90;56.00
23233;DHT22;11785;49.500;8.288;2024-02-28T14:08:50;21.60;56.10
23233;DHT22;11785;49.500;8.288;2024-02-28T14:11:17;22.00;56.00
23233;DHT22;11785;49.500;8.288;2024-02-28T14:13:43;22.90;55.80
23233;DHT22;11785;49.500;8.288;2024-02-28T14:16:08;23.70;55.60
23233;DHT22;11785;49.500;8.288;2024-02-28T14:18:34;24.50;55.40
23233;DHT22;11785;49.500;8.288;2024-02-28T14:21:00;25.30;47.00
23233;DHT22;11785;49.500;8.288;2024-02-28T14:23:27;25.90;47.20
23233;DHT22;11785;49.500;8.288;2024-02-28T14:25:53;26.20;47.40
23233;DHT22;11785;49.500;8.288;2024-02-28T14:28:18;24.40;55.30
23233;DHT22;11785;49.500;8.288;2024-02-28T14:30:44;23.00;55.60
23233;DHT22;11785;49.500;8.288;2024-02-28T14:33:11;21.80;55.90
23233;DHT22;11785;49.500;8.288;2024-02-28T14:35:37;22.10;55.90
23233;DHT22;11785;49.500;8.288;2024-02-28T14:38:04;22.40;55.80
23233;DHT22;11785;49.500;8.288;2024-02-28T14:40:30;22.40;55.80
23233;DHT22;11785;49.500;8.288;2024-02-28T14:42:56;21.80;56.00
23233;DHT22;11785;49.500;8.288;2024-02-28T14:45:22;21.70;56.00
23233;DHT22;11785;49.500;8.288;2024-02-28T14:47:49;21.90;56.00
23233;DHT22;11785;49.500;8.288;2024-02-28T14:50:15;22.20;55.90
23233;DHT22;11785;49.500;8.288;2024-02-28T14:52:41;22.60;55.80
23233;DHT22;11785;49.500;8.288;2024-02-28T14:55:08;22.10;55.90
23233;DHT22;11785;49.500;8.288;2024-02-28T14:57:37;20.70;56.30
23233;DHT22;11785;49.500;8.288;2024-02-28T15:00:04;20.10;56.40
23233;DHT22;11785;49.500;8.288;2024-02-28T15:02:34;20.00;56.40
23233;DHT22;11785;49.500;8.288;2024-02-28T15:04:59;20.50;56.30
23233;DHT22;11785;49.500;8.288;2024-02-28T15:07:25;21.30;56.10
23233;DHT22;11785;49.500;8.288;2024-02-28T15:09:51;21.90;55.90
23233;DHT22;11785;49.500;8.288;2024-02-28T15:12:16;22.10;55.90
23233;DHT22;11785;49.500;8.288;2024-02-28T15:14:42;21.30;56.10
23233;DHT22;11785;49.500;8.288;2024-02-28T15:17:07;20.90;56.20
23233;DHT22;11785;49.500;8.288;2024-02-28T15:19:33;20.70;56.20
23233;DHT22;11785;49.500;8.288;2024-02-28T15:21:59;21.20;56.10
23233;DHT22;11785;49.500;8.288;2024-02-28T15:24:24;21.60;56.00
23233;DHT22;11785;49.500;8.288;2024-02-28T15:26:52;22.40;55.80
23233;DHT22;11785;49.500;8.288;2024-02-28T15:29:17;22.20;55.80
23233;DHT22;11785;49.500;8.288;2024-02-28T15:31:44;21.20;56.00
23233;DHT22;11785;49.500;8.288;2024-02-28T15:34:10;20.50;56.20
23233;DHT22;11785;49.500;8.288;2024-02-28T15:36:35;19.80;56.40